createdAt,value
2023-06-04T00:00:48.930Z,19.80
2023-06-04T00:03:16.574Z,19.80
2023-06-04T00:05:44.136Z,19.70
2023-06-04T00:08:12.435Z,19.60
2023-06-04T00:10:43.655Z,19.60
2023-06-04T00:13:11.134Z,19.60
2023-06-04T00:15:38.537Z,19.60
2023-06-04T00:18:06.140Z,19.60
2023-06-04T00:20:33.767Z,19.60
2023-06-04T00:23:01.148Z,19.50
2023-06-04T00:25:28.607Z,19.50
2023-06-04T00:27:56.015Z,19.50
2023-06-04T00:30:23.447Z,19.50
2023-06-04T00:32:51.030Z,19.50
2023-06-04T00:35:18.481Z,19.50
2023-06-04T00:37:46.073Z,19.50
2023-06-04T00:40:14.158Z,19.50
2023-06-04T00:42:41.539Z,19.50
2023-06-04T00:45:10.818Z,19.40
2023-06-04T00:47:38.323Z,19.30
2023-06-04T00:50:08.109Z,19.20
2023-06-04T00:52:36.164Z,19.20
2023-06-04T00:55:03.910Z,19.30
2023-06-04T00:57:31.318Z,19.20
2023-06-04T00:59:58.849Z,19.20
2023-06-04T01:02:27.234Z,19.30
2023-06-04T01:05:23.292Z,19.30
2023-06-04T01:07:51.938Z,19.20
2023-06-04T01:10:20.017Z,19.20
2023-06-04T01:12:47.520Z,19.20
2023-06-04T01:15:15.068Z,19.20
2023-06-04T01:17:52.636Z,19.20
2023-06-04T01:20:36.220Z,19.10
2023-06-04T01:23:25.227Z,19.00
2023-06-04T01:25:53.260Z,19.00
2023-06-04T01:28:22.210Z,19.00
2023-06-04T01:30:51.998Z,19.10
2023-06-04T01:33:21.432Z,19.10
2023-06-04T01:35:49.074Z,19.10
2023-06-04T01:38:16.935Z,19.10
2023-06-04T01:40:44.364Z,19.20
2023-06-04T01:43:11.870Z,19.20
2023-06-04T01:45:39.383Z,19.30
2023-06-04T01:48:07.535Z,19.40
2023-06-04T01:50:35.080Z,19.40
2023-06-04T01:53:02.969Z,19.50
2023-06-04T01:55:34.588Z,19.60
2023-06-04T01:58:02.311Z,19.60
2023-06-04T02:00:30.713Z,19.60
2023-06-04T02:02:59.367Z,19.60
2023-06-04T02:05:27.508Z,19.60
2023-06-04T02:07:54.946Z,19.70
2023-06-04T02:10:22.666Z,19.70
2023-06-04T02:13:01.841Z,19.70
2023-06-04T02:15:30.795Z,19.70
2023-06-04T02:18:22.024Z,19.70
2023-06-04T02:20:50.746Z,19.70
2023-06-04T02:23:20.473Z,19.70
2023-06-04T02:25:49.445Z,19.60
2023-06-04T02:28:16.902Z,19.50
2023-06-04T02:30:47.124Z,19.60
2023-06-04T02:33:15.608Z,19.50
2023-06-04T02:35:43.359Z,19.40
2023-06-04T02:38:11.420Z,19.30
2023-06-04T02:40:39.998Z,19.30
2023-06-04T02:43:07.439Z,19.20
2023-06-04T02:45:35.040Z,19.20
2023-06-04T02:48:02.555Z,19.20
2023-06-04T02:50:30.064Z,19.20
2023-06-04T02:52:57.555Z,19.20
2023-06-04T02:55:25.049Z,19.20
2023-06-04T02:57:53.120Z,19.20
2023-06-04T03:00:20.738Z,19.10
2023-06-04T03:02:49.891Z,19.20
2023-06-04T03:05:18.852Z,19.10
2023-06-04T03:07:47.963Z,19.10
2023-06-04T03:10:16.689Z,19.00
2023-06-04T03:12:44.463Z,19.00
2023-06-04T03:15:12.867Z,18.90
2023-06-04T03:17:42.572Z,18.90
2023-06-04T03:20:10.446Z,18.90
2023-06-04T03:22:38.565Z,19.00
2023-06-04T03:25:06.634Z,18.90
2023-06-04T03:27:35.155Z,18.90
2023-06-04T03:30:04.219Z,18.80
2023-06-04T03:32:41.204Z,18.80
2023-06-04T03:35:09.409Z,18.80
2023-06-04T03:37:36.846Z,18.70
2023-06-04T03:40:07.290Z,18.60
2023-06-04T03:42:37.407Z,18.70
2023-06-04T03:45:05.291Z,18.70
2023-06-04T03:47:33.864Z,18.60
2023-06-04T03:50:02.422Z,18.60
2023-06-04T03:52:30.367Z,18.70
2023-06-04T03:55:01.407Z,18.70
2023-06-04T03:57:30.687Z,18.60
2023-06-04T03:59:58.159Z,18.60
2023-06-04T04:02:26.200Z,18.60
2023-06-04T04:04:55.305Z,18.70
2023-06-04T04:07:24.703Z,18.70
2023-06-04T04:09:53.176Z,18.70
2023-06-04T04:12:21.564Z,18.70
2023-06-04T04:14:50.165Z,18.70
2023-06-04T04:17:18.126Z,18.80
2023-06-04T04:19:45.906Z,18.70
2023-06-04T04:22:14.129Z,18.70
2023-06-04T04:24:41.966Z,18.80
2023-06-04T04:27:12.046Z,18.80
2023-06-04T04:29:39.953Z,18.90
2023-06-04T04:32:11.627Z,18.90
2023-06-04T04:34:55.906Z,19.00
2023-06-04T04:37:31.713Z,19.00
2023-06-04T04:39:59.569Z,19.10
2023-06-04T04:42:29.980Z,19.10
2023-06-04T04:44:57.647Z,19.20
2023-06-04T04:47:27.177Z,19.10
2023-06-04T04:49:54.691Z,19.30
2023-06-04T04:52:22.125Z,19.20
2023-06-04T04:54:49.724Z,19.20
2023-06-04T04:57:17.150Z,19.20
2023-06-04T04:59:48.320Z,19.30
2023-06-04T05:02:16.675Z,19.40
2023-06-04T05:04:44.425Z,19.40
2023-06-04T05:07:14.215Z,19.50
2023-06-04T05:09:41.880Z,19.60
2023-06-04T05:12:09.694Z,19.70
2023-06-04T05:14:38.780Z,19.70
2023-06-04T05:17:07.623Z,19.80
2023-06-04T05:19:36.370Z,20.00
2023-06-04T05:22:04.348Z,20.20
2023-06-04T05:24:32.782Z,20.30
2023-06-04T05:27:04.746Z,20.40
2023-06-04T05:29:32.630Z,20.50
2023-06-04T05:32:00.279Z,20.70
2023-06-04T05:34:27.949Z,20.90
2023-06-04T05:36:58.267Z,21.00
2023-06-04T05:39:26.377Z,21.20
2023-06-04T05:41:59.478Z,21.40
2023-06-04T05:44:26.982Z,21.80
2023-06-04T05:46:54.478Z,22.10
2023-06-04T05:49:26.128Z,22.40
2023-06-04T05:51:55.377Z,22.70
2023-06-04T05:54:23.018Z,23.00
2023-06-04T05:56:51.508Z,23.30
2023-06-04T05:59:19.013Z,23.60
2023-06-04T06:01:46.454Z,23.60
2023-06-04T06:04:14.445Z,23.40
2023-06-04T06:06:45.007Z,23.30
2023-06-04T06:09:12.504Z,23.10
2023-06-04T06:11:39.944Z,22.90
2023-06-04T06:14:07.589Z,22.90
2023-06-04T06:16:35.525Z,23.00
2023-06-04T06:19:03.264Z,23.00
2023-06-04T06:21:32.238Z,22.90
2023-06-04T06:24:00.130Z,23.00
2023-06-04T06:26:27.760Z,22.90
2023-06-04T06:28:58.527Z,22.80
2023-06-04T06:31:27.158Z,22.50
2023-06-04T06:33:54.646Z,22.40
2023-06-04T06:36:22.171Z,22.40
2023-06-04T06:38:49.567Z,22.40
2023-06-04T06:41:17.004Z,22.30
2023-06-04T06:43:44.484Z,22.20
2023-06-04T06:46:11.927Z,22.30
2023-06-04T06:48:39.363Z,22.40
2023-06-04T06:51:07.045Z,22.40
2023-06-04T06:53:34.610Z,22.40
2023-06-04T06:56:02.283Z,22.30
2023-06-04T06:58:29.768Z,22.30
2023-06-04T07:00:57.770Z,22.30
2023-06-04T07:03:25.339Z,22.40
2023-06-04T07:05:52.841Z,22.40
2023-06-04T07:08:20.232Z,22.40
2023-06-04T07:10:47.700Z,22.50
2023-06-04T07:13:15.167Z,22.50
2023-06-04T07:15:42.606Z,22.40
2023-06-04T07:18:10.550Z,22.40
2023-06-04T07:20:38.003Z,22.50
2023-06-04T07:23:05.475Z,22.50
2023-06-04T07:25:32.886Z,22.50
2023-06-04T07:28:00.405Z,22.60
2023-06-04T07:30:27.916Z,22.60
2023-06-04T07:32:55.464Z,22.80
2023-06-04T07:35:22.940Z,23.00
2023-06-04T07:37:51.049Z,23.20
2023-06-04T07:40:18.688Z,23.30
2023-06-04T07:42:48.381Z,23.50
2023-06-04T07:45:16.513Z,23.70
2023-06-04T07:47:44.846Z,23.80
2023-06-04T07:50:13.217Z,24.10
2023-06-04T07:52:40.760Z,24.20
2023-06-04T07:55:09.515Z,24.10
2023-06-04T07:57:37.387Z,24.20
2023-06-04T08:00:05.843Z,24.40
2023-06-04T08:02:39.263Z,24.50
2023-06-04T08:05:07.147Z,24.30
2023-06-04T08:07:34.588Z,24.30
2023-06-04T08:10:02.133Z,24.50
2023-06-04T08:12:29.538Z,24.80
2023-06-04T08:14:58.438Z,24.70
2023-06-04T08:17:26.090Z,25.40
2023-06-04T08:19:53.603Z,26.00
2023-06-04T08:22:21.048Z,26.70
2023-06-04T08:24:48.545Z,26.70
2023-06-04T08:27:16.539Z,27.40
2023-06-04T08:29:43.961Z,27.80
2023-06-04T08:32:12.017Z,28.00
2023-06-04T08:34:39.486Z,28.70
2023-06-04T08:37:07.018Z,28.90
2023-06-04T08:39:34.514Z,29.50
2023-06-04T08:42:04.935Z,29.50
2023-06-04T08:44:32.542Z,28.80
2023-06-04T08:47:09.955Z,28.10
2023-06-04T08:49:37.852Z,27.60
2023-06-04T08:52:07.316Z,26.60
2023-06-04T08:54:35.090Z,26.30
2023-06-04T08:57:03.482Z,25.80
2023-06-04T08:59:31.104Z,25.50
2023-06-04T09:01:59.707Z,25.20
2023-06-04T09:04:27.262Z,25.00
2023-06-04T09:06:55.474Z,24.70
2023-06-04T09:09:24.760Z,24.50
2023-06-04T09:11:53.906Z,24.40
2023-06-04T09:14:21.838Z,24.50
2023-06-04T09:16:50.629Z,24.50
2023-06-04T09:19:19.808Z,24.40
2023-06-04T09:21:51.114Z,24.30
2023-06-04T09:24:22.943Z,24.40
2023-06-04T09:26:50.889Z,24.50
2023-06-04T09:29:19.392Z,24.80
2023-06-04T09:31:59.806Z,25.50
2023-06-04T09:34:31.246Z,26.70
2023-06-04T09:37:00.034Z,27.80
2023-06-04T09:39:28.239Z,27.90
2023-06-04T09:42:02.841Z,27.70
2023-06-04T09:44:31.073Z,27.10
2023-06-04T09:46:59.780Z,27.10
2023-06-04T09:49:27.393Z,27.20
2023-06-04T09:51:54.843Z,27.60
2023-06-04T09:54:22.216Z,27.30
2023-06-04T09:56:49.659Z,26.90
2023-06-04T09:59:18.994Z,26.70
2023-06-04T10:01:47.678Z,26.50
2023-06-04T10:04:16.596Z,26.50
2023-06-04T10:06:44.432Z,27.30
2023-06-04T10:09:15.115Z,28.00
2023-06-04T10:11:51.038Z,28.60
2023-06-04T10:14:18.443Z,28.70
2023-06-04T10:16:47.068Z,28.50
2023-06-04T10:19:15.532Z,28.30
2023-06-04T10:21:44.303Z,28.50
2023-06-04T10:24:13.314Z,29.10
2023-06-04T10:26:44.878Z,29.80
2023-06-04T10:29:13.707Z,30.50
2023-06-04T10:31:42.531Z,31.20
2023-06-04T10:34:10.112Z,32.00
2023-06-04T10:36:45.574Z,32.10
2023-06-04T10:39:13.589Z,32.20
2023-06-04T10:41:41.161Z,32.10
2023-06-04T10:44:08.772Z,32.20
2023-06-04T10:46:43.173Z,32.20
2023-06-04T10:49:15.771Z,31.60
2023-06-04T10:51:45.020Z,31.40
2023-06-04T10:54:26.512Z,31.10
2023-06-04T10:56:54.876Z,31.00
2023-06-04T10:59:22.823Z,30.40
2023-06-04T11:01:50.351Z,30.10
2023-06-04T11:04:24.620Z,29.50
2023-06-04T11:07:11.482Z,29.00
2023-06-04T11:09:49.614Z,28.50
2023-06-04T11:12:17.106Z,27.80
2023-06-04T11:15:00.575Z,27.40
2023-06-04T11:17:28.186Z,27.10
2023-06-04T11:19:56.817Z,27.10
2023-06-04T11:22:24.999Z,26.90
2023-06-04T11:25:00.180Z,26.50
2023-06-04T11:27:36.278Z,26.30
2023-06-04T11:30:08.757Z,26.20
2023-06-04T11:32:36.233Z,26.20
2023-06-04T11:35:06.443Z,26.20
2023-06-04T11:37:34.638Z,26.20
2023-06-04T11:40:02.449Z,26.30
2023-06-04T11:42:31.077Z,26.20
2023-06-04T11:44:59.117Z,26.20
2023-06-04T11:47:27.181Z,26.10
2023-06-04T11:49:57.793Z,25.80
2023-06-04T11:52:25.720Z,25.80
2023-06-04T11:54:53.403Z,25.80
2023-06-04T11:57:21.064Z,26.00
2023-06-04T11:59:48.628Z,25.90
2023-06-04T12:02:16.229Z,25.90
2023-06-04T12:04:43.727Z,25.80
2023-06-04T12:07:11.660Z,25.80
2023-06-04T12:09:40.308Z,25.70
2023-06-04T12:12:09.251Z,25.80
2023-06-04T12:14:36.760Z,25.80
2023-06-04T12:17:11.287Z,26.00
2023-06-04T12:19:52.198Z,26.10
2023-06-04T12:22:20.957Z,26.20
2023-06-04T12:24:57.026Z,26.10
2023-06-04T12:27:28.666Z,26.30
2023-06-04T12:30:00.677Z,26.20
2023-06-04T12:32:28.840Z,26.30
2023-06-04T12:34:56.482Z,26.40
2023-06-04T12:37:26.539Z,26.20
2023-06-04T12:39:54.867Z,26.00
2023-06-04T12:42:24.131Z,25.80
2023-06-04T12:44:51.970Z,25.90
2023-06-04T12:47:22.735Z,25.80
2023-06-04T12:49:50.284Z,25.80
2023-06-04T12:52:18.603Z,25.70
2023-06-04T12:54:46.257Z,25.60
2023-06-04T12:57:13.709Z,25.60
2023-06-04T12:59:41.135Z,25.70
2023-06-04T13:02:08.621Z,25.70
2023-06-04T13:04:36.258Z,25.90
2023-06-04T13:07:04.269Z,25.90
2023-06-04T13:09:33.631Z,26.00
2023-06-04T13:12:01.106Z,25.90
2023-06-04T13:14:28.715Z,25.90
2023-06-04T13:16:57.463Z,25.90
2023-06-04T13:19:27.964Z,25.90
2023-06-04T13:21:55.761Z,25.70
2023-06-04T13:24:23.236Z,25.60
2023-06-04T13:26:50.755Z,25.50
2023-06-04T13:29:22.721Z,25.40
2023-06-04T13:31:50.845Z,25.40
2023-06-04T13:34:27.688Z,25.50
2023-06-04T13:36:56.670Z,25.60
2023-06-04T13:39:24.152Z,25.70
2023-06-04T13:41:51.599Z,25.80
2023-06-04T13:44:19.204Z,25.80
2023-06-04T13:46:46.771Z,25.80
2023-06-04T13:49:14.186Z,25.80
2023-06-04T13:51:42.092Z,25.70
2023-06-04T13:54:11.835Z,25.80
2023-06-04T13:56:40.666Z,25.60
2023-06-04T13:59:08.093Z,25.50
2023-06-04T14:01:35.989Z,25.60
2023-06-04T14:04:07.524Z,25.80
2023-06-04T14:06:37.203Z,25.90
2023-06-04T14:09:08.160Z,26.00
2023-06-04T14:11:36.042Z,26.10
2023-06-04T14:14:03.439Z,26.10
2023-06-04T14:16:31.006Z,26.00
2023-06-04T14:18:58.563Z,25.90
2023-06-04T14:21:26.194Z,25.90
2023-06-04T14:23:54.931Z,26.00
2023-06-04T14:26:23.499Z,25.90
2023-06-04T14:28:50.963Z,25.90
2023-06-04T14:31:18.393Z,26.10
2023-06-04T14:33:45.879Z,26.10
2023-06-04T14:36:13.369Z,26.10
2023-06-04T14:38:41.782Z,26.10
2023-06-04T14:41:09.545Z,26.10
2023-06-04T14:43:37.280Z,25.90
2023-06-04T14:46:05.615Z,25.80
2023-06-04T14:48:33.244Z,25.80
2023-06-04T14:51:00.724Z,25.90
2023-06-04T14:53:28.169Z,25.90
2023-06-04T14:55:55.874Z,25.90
2023-06-04T14:58:23.280Z,26.00
2023-06-04T15:00:50.757Z,26.00
2023-06-04T15:03:18.284Z,25.90
2023-06-04T15:05:45.971Z,26.00
2023-06-04T15:08:13.680Z,26.10
2023-06-04T15:10:41.157Z,26.20
2023-06-04T15:13:08.656Z,26.20
2023-06-04T15:15:36.106Z,26.00
2023-06-04T15:18:03.670Z,25.90
2023-06-04T15:20:31.186Z,25.70
2023-06-04T15:22:58.622Z,25.60
2023-06-04T15:25:27.830Z,25.60
2023-06-04T15:27:56.460Z,25.70
2023-06-04T15:30:24.058Z,25.60
2023-06-04T15:32:51.507Z,25.60
2023-06-04T15:35:19.116Z,25.50
2023-06-04T15:37:46.581Z,25.40
2023-06-04T15:40:14.053Z,25.40
2023-06-04T15:42:41.412Z,25.40
2023-06-04T15:45:09.452Z,25.50
2023-06-04T15:47:38.720Z,25.50
2023-06-04T15:50:06.976Z,25.50
2023-06-04T15:52:34.401Z,25.50
2023-06-04T15:55:01.952Z,25.50
2023-06-04T15:57:29.376Z,25.60
2023-06-04T15:59:56.796Z,25.50
2023-06-04T16:02:24.181Z,25.50
2023-06-04T16:04:51.622Z,25.30
2023-06-04T16:07:19.051Z,25.30
2023-06-04T16:09:46.472Z,25.20
2023-06-04T16:12:13.919Z,25.10
2023-06-04T16:14:41.317Z,25.00
2023-06-04T16:17:08.800Z,24.90
2023-06-04T16:19:36.286Z,24.90
2023-06-04T16:22:03.764Z,24.80
2023-06-04T16:24:31.842Z,24.80
2023-06-04T16:26:59.358Z,24.80
2023-06-04T16:29:26.803Z,24.70
2023-06-04T16:31:54.245Z,24.60
2023-06-04T16:34:21.686Z,24.50
2023-06-04T16:36:49.120Z,24.40
2023-06-04T16:39:16.683Z,24.40
2023-06-04T16:41:44.105Z,24.30
2023-06-04T16:44:11.525Z,24.30
2023-06-04T16:46:38.942Z,24.30
2023-06-04T16:49:08.839Z,24.20
2023-06-04T16:51:37.242Z,24.10
2023-06-04T16:54:04.703Z,24.00
2023-06-04T16:56:32.217Z,23.90
2023-06-04T16:58:59.595Z,23.90
2023-06-04T17:01:28.326Z,23.70
2023-06-04T17:03:55.906Z,23.70
2023-06-04T17:06:23.360Z,23.40
2023-06-04T17:08:50.813Z,23.00
2023-06-04T17:11:18.229Z,21.90
2023-06-04T17:13:45.674Z,21.00
2023-06-04T17:16:14.405Z,20.50
2023-06-04T17:18:41.904Z,20.20
2023-06-04T17:21:10.897Z,20.10
2023-06-04T17:23:39.324Z,20.00
2023-06-04T17:26:07.872Z,20.00
2023-06-04T17:28:35.477Z,19.90
2023-06-04T17:31:03.812Z,19.60
2023-06-04T17:33:34.539Z,19.50
2023-06-04T17:36:02.277Z,19.50
2023-06-04T17:38:29.714Z,19.40
2023-06-04T17:40:57.196Z,19.50
2023-06-04T17:43:24.595Z,19.50
2023-06-04T17:45:52.058Z,19.40
2023-06-04T17:48:19.769Z,19.50
2023-06-04T17:50:47.358Z,19.40
2023-06-04T17:53:14.767Z,19.40
2023-06-04T17:55:42.299Z,19.30
2023-06-04T17:58:09.792Z,19.10
2023-06-04T18:00:37.254Z,18.80
2023-06-04T18:03:05.030Z,18.50
2023-06-04T18:05:32.487Z,18.30
2023-06-04T18:08:00.034Z,18.20
2023-06-04T18:10:27.474Z,18.20
2023-06-04T18:12:54.929Z,18.20
2023-06-04T18:15:22.691Z,18.10
2023-06-04T18:17:50.161Z,18.00
2023-06-04T18:20:17.643Z,18.10
2023-06-04T18:22:45.128Z,18.10
2023-06-04T18:25:12.607Z,18.10
2023-06-04T18:27:40.020Z,18.10
2023-06-04T18:30:10.616Z,18.10
2023-06-04T18:32:38.050Z,18.20
2023-06-04T18:35:05.946Z,18.10
2023-06-04T18:37:35.995Z,18.10
2023-06-04T18:40:03.626Z,18.10
2023-06-04T18:42:31.705Z,18.10
2023-06-04T18:45:00.580Z,18.00
2023-06-04T18:47:28.534Z,18.00
2023-06-04T18:49:56.879Z,18.00
2023-06-04T18:52:26.831Z,18.00
2023-06-04T18:54:54.329Z,17.90
2023-06-04T18:57:21.897Z,18.00
2023-06-04T18:59:49.313Z,17.90
2023-06-04T19:02:16.875Z,17.90
2023-06-04T19:04:45.864Z,17.90
2023-06-04T19:07:13.229Z,18.00
2023-06-04T19:09:40.639Z,18.10
2023-06-04T19:12:08.200Z,18.10
2023-06-04T19:14:35.640Z,18.10
2023-06-04T19:17:03.474Z,18.10
2023-06-04T19:19:31.028Z,18.20
2023-06-04T19:21:59.478Z,18.30
2023-06-04T19:24:26.967Z,18.30
2023-06-04T19:26:54.526Z,18.30
2023-06-04T19:29:21.942Z,18.40
2023-06-04T19:31:49.432Z,18.30
2023-06-04T19:34:16.947Z,18.20
2023-06-04T19:36:45.325Z,18.20
2023-06-04T19:39:12.706Z,18.10
2023-06-04T19:41:40.311Z,18.10
2023-06-04T19:44:07.808Z,18.10
2023-06-04T19:46:35.334Z,18.10
2023-06-04T19:49:02.912Z,18.10
2023-06-04T19:51:30.363Z,18.10
2023-06-04T19:53:57.811Z,18.20
2023-06-04T19:56:26.692Z,18.30
2023-06-04T19:58:54.225Z,18.30
2023-06-04T20:01:21.764Z,18.10
2023-06-04T20:03:49.929Z,18.00
2023-06-04T20:06:18.174Z,18.00
2023-06-04T20:08:45.891Z,17.90
2023-06-04T20:11:13.725Z,17.90
2023-06-04T20:13:41.906Z,17.80
2023-06-04T20:16:09.622Z,17.80
2023-06-04T20:18:37.415Z,17.80
2023-06-04T20:21:04.957Z,17.80
2023-06-04T20:23:32.409Z,17.80
2023-06-04T20:26:00.069Z,17.80
2023-06-04T20:28:30.138Z,17.90
2023-06-04T20:30:57.626Z,17.90
2023-06-04T20:33:26.956Z,17.90
2023-06-04T20:35:54.407Z,17.90
2023-06-04T20:38:21.839Z,17.90
2023-06-04T20:40:49.437Z,17.90
2023-06-04T20:43:16.945Z,17.90
2023-06-04T20:45:44.538Z,17.90
2023-06-04T20:48:12.076Z,18.00
2023-06-04T20:50:39.634Z,18.00
2023-06-04T20:53:07.224Z,17.90
2023-06-04T20:55:36.235Z,18.00
2023-06-04T20:58:03.742Z,18.00
2023-06-04T21:00:32.638Z,18.00
2023-06-04T21:03:00.121Z,18.10
2023-06-04T21:05:27.631Z,18.10
2023-06-04T21:07:59.781Z,18.10
2023-06-04T21:10:28.864Z,18.20
2023-06-04T21:12:56.262Z,18.20
2023-06-04T21:15:23.704Z,18.20
2023-06-04T21:17:51.330Z,18.30
2023-06-04T21:20:19.138Z,18.20
2023-06-04T21:22:46.716Z,18.10
2023-06-04T21:25:14.300Z,18.10
2023-06-04T21:27:41.783Z,18.10
2023-06-04T21:30:09.630Z,18.10
2023-06-04T21:32:37.109Z,18.10
2023-06-04T21:35:04.915Z,18.10
2023-06-04T21:37:32.383Z,18.10
2023-06-04T21:39:59.787Z,18.10
2023-06-04T21:42:27.214Z,18.00
2023-06-04T21:44:55.099Z,18.00
2023-06-04T21:47:23.001Z,18.00
2023-06-04T21:49:50.460Z,18.00
2023-06-04T21:52:25.694Z,18.00
2023-06-04T21:54:53.672Z,18.00
2023-06-04T21:57:24.327Z,18.00
2023-06-04T21:59:51.798Z,18.00
2023-06-04T22:02:19.240Z,18.00
2023-06-04T22:04:46.649Z,18.00
2023-06-04T22:07:14.161Z,18.00
2023-06-04T22:09:41.779Z,18.00
2023-06-04T22:12:09.215Z,18.00
2023-06-04T22:14:38.757Z,17.90
2023-06-04T22:17:06.853Z,17.90
2023-06-04T22:19:34.293Z,17.90
2023-06-04T22:22:01.840Z,17.90
2023-06-04T22:24:29.297Z,17.90
2023-06-04T22:26:57.122Z,17.90
2023-06-04T22:29:24.561Z,18.00
2023-06-04T22:31:52.147Z,18.00
2023-06-04T22:34:19.687Z,18.00
2023-06-04T22:36:47.247Z,18.00
2023-06-04T22:39:14.741Z,18.00
2023-06-04T22:41:48.312Z,18.00
2023-06-04T22:44:15.898Z,18.00
2023-06-04T22:46:43.478Z,18.00
2023-06-04T22:49:11.826Z,17.90
2023-06-04T22:51:40.120Z,17.90
2023-06-04T22:54:08.063Z,17.90
2023-06-04T22:56:38.742Z,17.90
2023-06-04T22:59:06.187Z,17.90
2023-06-04T23:01:33.717Z,17.90
2023-06-04T23:04:01.347Z,17.90
2023-06-04T23:06:28.782Z,17.90
2023-06-04T23:08:56.290Z,18.00
2023-06-04T23:11:23.720Z,18.00
2023-06-04T23:13:51.301Z,18.00
2023-06-04T23:16:18.734Z,18.00
2023-06-04T23:18:46.261Z,17.90
2023-06-04T23:21:13.961Z,18.00
2023-06-04T23:23:41.485Z,18.00
2023-06-04T23:26:09.073Z,17.90
2023-06-04T23:28:36.496Z,18.00
2023-06-04T23:31:03.990Z,18.00
2023-06-04T23:33:31.590Z,17.90
2023-06-04T23:35:59.025Z,17.90
2023-06-04T23:38:26.987Z,17.80
2023-06-04T23:40:54.458Z,17.80
2023-06-04T23:43:21.868Z,17.80
2023-06-04T23:45:49.360Z,17.80
2023-06-04T23:48:17.597Z,17.80
2023-06-04T23:50:45.088Z,17.80
2023-06-04T23:53:12.513Z,17.70
2023-06-04T23:55:40.591Z,17.70
2023-06-04T23:58:08.089Z,17.60
